createdAt,value
2022-07-27T00:01:08.788Z,100516.84
2022-07-27T00:03:38.810Z,100602.75
2022-07-27T00:06:07.386Z,100628.47
2022-07-27T00:08:36.031Z,100609.28
2022-07-27T00:11:04.305Z,100613.56
2022-07-27T00:13:32.978Z,100610.69
2022-07-27T00:16:01.030Z,100595.78
2022-07-27T00:18:29.145Z,100582.50
2022-07-27T00:20:58.647Z,100597.56
2022-07-27T00:23:26.645Z,100606.47
2022-07-27T00:25:54.695Z,100576.88
2022-07-27T00:28:22.664Z,100594.75
2022-07-27T00:30:50.819Z,100618.03
2022-07-27T00:33:18.818Z,100612.81
2022-07-27T00:35:46.976Z,100595.59
2022-07-27T00:38:16.580Z,100618.56
2022-07-27T00:40:45.193Z,100606.75
2022-07-27T00:43:13.851Z,100616.50
2022-07-27T00:45:41.933Z,100608.94
2022-07-27T00:48:11.425Z,100588.81
2022-07-27T00:50:42.254Z,100579.78
2022-07-27T00:53:10.789Z,100609.69
2022-07-27T00:55:41.267Z,100613.09
2022-07-27T00:58:10.033Z,100598.34
2022-07-27T01:00:39.084Z,100608.97
2022-07-27T01:03:08.725Z,100555.81
2022-07-27T01:05:42.681Z,100573.66
2022-07-27T01:08:14.610Z,100519.28
2022-07-27T01:10:45.425Z,100607.63
2022-07-27T01:13:14.326Z,100551.00
2022-07-27T01:15:44.137Z,100612.31
2022-07-27T01:18:13.866Z,100564.13
2022-07-27T01:20:42.791Z,100610.84
2022-07-27T01:23:12.320Z,100602.97
2022-07-27T01:25:42.779Z,100600.94
2022-07-27T01:28:10.941Z,100590.75
2022-07-27T01:30:39.318Z,100606.63
2022-07-27T01:33:10.049Z,100560.75
2022-07-27T01:35:39.595Z,100612.44
2022-07-27T01:38:09.366Z,100606.47
2022-07-27T01:40:39.809Z,100614.78
2022-07-27T01:43:08.333Z,100611.72
2022-07-27T01:45:36.585Z,100608.38
2022-07-27T01:48:05.220Z,100472.03
2022-07-27T01:50:33.158Z,100601.91
2022-07-27T01:53:01.299Z,100606.63
2022-07-27T01:55:39.180Z,100603.50
2022-07-27T01:58:09.779Z,100615.88
2022-07-27T02:00:38.539Z,100469.91
2022-07-27T02:03:08.200Z,100607.56
2022-07-27T02:05:36.999Z,100608.66
2022-07-27T02:08:05.819Z,100611.25
2022-07-27T02:10:34.712Z,100613.31
2022-07-27T02:13:01.689Z,100623.41
2022-07-27T02:15:51.111Z,100590.09
2022-07-27T02:18:36.351Z,100623.34
2022-07-27T02:21:06.462Z,100602.94
2022-07-27T02:23:35.140Z,100609.94
2022-07-27T02:26:04.679Z,100612.13
2022-07-27T02:28:33.052Z,100618.84
2022-07-27T02:31:02.751Z,100621.81
2022-07-27T02:33:30.877Z,100629.16
2022-07-27T02:35:59.092Z,100623.16
2022-07-27T02:38:27.387Z,100519.78
2022-07-27T02:40:55.389Z,100582.28
2022-07-27T02:43:23.901Z,100622.09
2022-07-27T02:45:52.659Z,100622.75
2022-07-27T02:48:22.146Z,100585.50
2022-07-27T02:50:50.262Z,100528.94
2022-07-27T02:53:18.394Z,100629.22
2022-07-27T02:55:46.352Z,100629.22
2022-07-27T02:58:14.463Z,100598.38
2022-07-27T03:00:42.734Z,100623.97
2022-07-27T03:03:11.012Z,100461.69
2022-07-27T03:05:40.587Z,100621.50
2022-07-27T03:08:08.778Z,100622.75
2022-07-27T03:10:36.864Z,100617.06
2022-07-27T03:13:05.354Z,100444.97
2022-07-27T03:15:34.591Z,100628.28
2022-07-27T03:18:02.970Z,100519.44
2022-07-27T03:20:31.180Z,100531.63
2022-07-27T03:23:00.597Z,100630.66
2022-07-27T03:25:28.865Z,100523.97
2022-07-27T03:28:01.926Z,100625.59
2022-07-27T03:30:32.613Z,100624.13
2022-07-27T03:33:00.889Z,100401.31
2022-07-27T03:35:29.043Z,100457.91
2022-07-27T03:37:57.068Z,100639.50
2022-07-27T03:40:29.891Z,100615.19
2022-07-27T03:42:58.067Z,100622.75
2022-07-27T03:45:26.266Z,100504.59
2022-07-27T03:47:54.664Z,100618.53
2022-07-27T03:50:23.686Z,100599.38
2022-07-27T03:52:51.909Z,100646.56
2022-07-27T03:55:19.924Z,100496.94
2022-07-27T03:57:50.835Z,100548.59
2022-07-27T04:00:19.170Z,100554.22
2022-07-27T04:02:47.654Z,100645.13
2022-07-27T04:05:15.993Z,100591.03
2022-07-27T04:07:44.170Z,100555.09
2022-07-27T04:10:12.276Z,100515.06
2022-07-27T04:12:42.113Z,100642.81
2022-07-27T04:15:12.754Z,100639.88
2022-07-27T04:17:54.878Z,100646.66
2022-07-27T04:20:25.577Z,100633.66
2022-07-27T04:22:53.636Z,100645.09
2022-07-27T04:25:22.028Z,100620.69
2022-07-27T04:27:50.776Z,100649.56
2022-07-27T04:30:20.559Z,100590.38
2022-07-27T04:32:48.890Z,100649.00
2022-07-27T04:35:19.355Z,100644.72
2022-07-27T04:37:57.778Z,100653.63
2022-07-27T04:40:31.322Z,100654.97
2022-07-27T04:42:59.488Z,100454.69
2022-07-27T04:45:29.233Z,100621.28
2022-07-27T04:47:57.448Z,100628.59
2022-07-27T04:50:25.917Z,100648.13
2022-07-27T04:52:53.927Z,100647.81
2022-07-27T04:55:21.923Z,100645.34
2022-07-27T04:57:50.760Z,100623.78
2022-07-27T05:00:19.254Z,100612.72
2022-07-27T05:02:48.728Z,100663.41
2022-07-27T05:05:16.661Z,100576.78
2022-07-27T05:07:44.838Z,100576.31
2022-07-27T05:10:17.926Z,100657.56
2022-07-27T05:12:48.048Z,100476.34
2022-07-27T05:15:16.362Z,100649.69
2022-07-27T05:17:44.734Z,100657.41
2022-07-27T05:20:14.483Z,100654.34
2022-07-27T05:22:42.685Z,100637.03
2022-07-27T05:25:11.414Z,100579.50
2022-07-27T05:27:50.967Z,100643.81
2022-07-27T05:30:23.749Z,100627.78
2022-07-27T05:32:51.891Z,100455.41
2022-07-27T05:35:22.313Z,100652.25
2022-07-27T05:37:50.326Z,100675.63
2022-07-27T05:40:18.377Z,100516.31
2022-07-27T05:42:46.365Z,100690.38
2022-07-27T05:45:15.067Z,100691.94
2022-07-27T05:47:43.413Z,100686.47
2022-07-27T05:50:11.812Z,100697.38
2022-07-27T05:52:41.555Z,100681.28
2022-07-27T05:55:10.686Z,100677.75
2022-07-27T05:57:38.836Z,100693.09
2022-07-27T06:00:08.305Z,100703.78
2022-07-27T06:02:42.706Z,100711.56
2022-07-27T06:05:15.922Z,100701.03
2022-07-27T06:08:03.585Z,100704.94
2022-07-27T06:10:34.084Z,100690.94
2022-07-27T06:13:03.199Z,100700.16
2022-07-27T06:15:31.255Z,100720.53
2022-07-27T06:17:59.407Z,100719.75
2022-07-27T06:20:28.298Z,100705.00
2022-07-27T06:23:00.302Z,100723.63
2022-07-27T06:25:33.999Z,100729.66
2022-07-27T06:28:04.332Z,100711.81
2022-07-27T06:30:32.588Z,100731.13
2022-07-27T06:33:01.008Z,100619.00
2022-07-27T06:35:29.503Z,100729.03
2022-07-27T06:38:00.689Z,100727.63
2022-07-27T06:40:29.900Z,100729.03
2022-07-27T06:42:58.390Z,100699.19
2022-07-27T06:45:26.620Z,100578.06
2022-07-27T06:47:54.618Z,100724.09
2022-07-27T06:50:23.590Z,100677.75
2022-07-27T06:52:51.550Z,100663.16
2022-07-27T06:55:21.044Z,100718.91
2022-07-27T06:57:49.293Z,100707.75
2022-07-27T07:00:17.629Z,100609.75
2022-07-27T07:02:53.394Z,100681.91
2022-07-27T07:05:23.376Z,100713.91
2022-07-27T07:07:51.707Z,100727.88
2022-07-27T07:10:23.679Z,100552.22
2022-07-27T07:12:55.591Z,100620.03
2022-07-27T07:15:24.824Z,100561.72
2022-07-27T07:17:52.929Z,100694.56
2022-07-27T07:20:21.170Z,100673.19
2022-07-27T07:22:49.100Z,100720.13
2022-07-27T07:25:18.014Z,100724.78
2022-07-27T07:27:47.598Z,100727.16
2022-07-27T07:30:16.038Z,100725.41
2022-07-27T07:32:44.199Z,100719.97
2022-07-27T07:35:12.462Z,100562.97
2022-07-27T07:37:40.933Z,100731.94
2022-07-27T07:40:42.817Z,100718.47
2022-07-27T07:43:01.994Z,100737.91
2022-07-27T07:45:32.563Z,100735.44
2022-07-27T07:48:07.467Z,100734.16
2022-07-27T07:50:36.612Z,100731.34
2022-07-27T07:53:04.642Z,100739.03
2022-07-27T07:55:32.602Z,100640.97
2022-07-27T07:58:04.100Z,100744.09
2022-07-27T08:00:32.040Z,100748.75
2022-07-27T08:03:00.237Z,100692.88
2022-07-27T08:05:28.668Z,100746.13
2022-07-27T08:07:56.685Z,100746.59
2022-07-27T08:10:25.539Z,100745.56
2022-07-27T08:12:55.702Z,100744.09
2022-07-27T08:15:34.698Z,100751.06
2022-07-27T08:18:04.503Z,100747.66
2022-07-27T08:20:32.498Z,100749.03
2022-07-27T08:23:00.597Z,100748.56
2022-07-27T08:25:28.602Z,100742.81
2022-07-27T08:27:56.609Z,100739.06
2022-07-27T08:30:26.145Z,100742.00
2022-07-27T08:32:56.019Z,100732.94
2022-07-27T08:35:24.151Z,100587.56
2022-07-27T08:37:52.675Z,100716.47
2022-07-27T08:43:09.919Z,100731.19
2022-07-27T08:45:41.502Z,100738.91
2022-07-27T08:48:13.846Z,100705.19
2022-07-27T08:50:43.162Z,100708.09
2022-07-27T08:53:13.686Z,100726.72
2022-07-27T08:55:44.153Z,100666.03
2022-07-27T08:58:13.947Z,100741.66
2022-07-27T09:00:45.022Z,100697.84
2022-07-27T09:03:18.962Z,100722.81
2022-07-27T09:05:50.881Z,100732.19
2022-07-27T09:08:22.510Z,100726.09
2022-07-27T09:10:51.496Z,100744.53
2022-07-27T09:13:22.146Z,100736.00
2022-07-27T09:18:41.696Z,100742.69
2022-07-27T09:21:12.516Z,100718.13
2022-07-27T09:23:42.159Z,100746.00
2022-07-27T09:26:29.068Z,100735.34
2022-07-27T09:29:00.265Z,100742.22
2022-07-27T09:31:30.427Z,100740.56
2022-07-27T09:34:00.318Z,100719.06
2022-07-27T09:36:31.004Z,100730.75
2022-07-27T09:39:03.835Z,100739.06
2022-07-27T09:41:45.937Z,100745.59
2022-07-27T09:44:32.202Z,100736.69
2022-07-27T09:47:02.683Z,100739.34
2022-07-27T09:49:32.402Z,100673.56
2022-07-27T09:52:02.605Z,100652.28
2022-07-27T09:54:44.701Z,100729.91
2022-07-27T09:57:12.768Z,100715.97
2022-07-27T09:59:41.121Z,100727.53
2022-07-27T10:02:13.268Z,100656.50
2022-07-27T10:04:41.454Z,100697.00
2022-07-27T10:07:13.127Z,100736.44
2022-07-27T10:09:43.319Z,100729.31
2022-07-27T10:12:11.595Z,100727.81
2022-07-27T10:14:39.574Z,100729.91
2022-07-27T10:17:13.104Z,100723.50
2022-07-27T10:19:46.953Z,100720.78
2022-07-27T10:22:15.144Z,100704.81
2022-07-27T10:24:43.577Z,100677.75
2022-07-27T10:27:22.447Z,100715.25
2022-07-27T10:29:52.301Z,100715.16
2022-07-27T10:32:31.028Z,100704.84
2022-07-27T10:34:59.978Z,100718.66
2022-07-27T10:37:29.289Z,100610.47
2022-07-27T10:40:13.065Z,100696.75
2022-07-27T10:42:41.647Z,100712.34
2022-07-27T10:45:12.360Z,100719.63
2022-07-27T10:47:45.813Z,100711.47
2022-07-27T10:50:25.963Z,100698.97
2022-07-27T10:52:56.338Z,100718.13
2022-07-27T10:55:46.728Z,100720.50
2022-07-27T10:58:48.802Z,100724.81
2022-07-27T11:01:21.704Z,100521.00
2022-07-27T11:03:55.327Z,100720.41
2022-07-27T11:06:37.611Z,100701.03
2022-07-27T11:11:59.737Z,100724.38
2022-07-27T11:14:31.668Z,100726.69
2022-07-27T11:17:24.337Z,100727.16
2022-07-27T11:19:55.391Z,100721.03
2022-07-27T11:23:03.293Z,100730.28
2022-07-27T11:25:23.377Z,100727.91
2022-07-27T11:27:52.437Z,100720.50
2022-07-27T11:30:24.974Z,100692.66
2022-07-27T11:32:53.613Z,100694.06
2022-07-27T11:35:23.360Z,100715.41
2022-07-27T11:38:03.121Z,100722.97
2022-07-27T11:41:12.667Z,100716.75
2022-07-27T11:43:39.453Z,100670.38
2022-07-27T11:46:20.550Z,100720.66
2022-07-27T11:49:05.932Z,100627.88
2022-07-27T11:51:37.869Z,100728.38
2022-07-27T11:54:07.536Z,100737.38
2022-07-27T11:56:37.955Z,100716.78
2022-07-27T11:59:15.312Z,100725.81
2022-07-27T12:01:49.088Z,100723.63
2022-07-27T12:04:23.021Z,100728.16
2022-07-27T12:07:02.635Z,100717.91
2022-07-27T12:09:36.800Z,100724.22
2022-07-27T12:12:15.089Z,100700.56
2022-07-27T12:14:46.152Z,100725.13
2022-07-27T12:17:20.015Z,100710.88
2022-07-27T12:19:56.799Z,100713.22
2022-07-27T12:22:37.625Z,100722.97
2022-07-27T12:25:12.602Z,100722.03
2022-07-27T12:27:55.435Z,100721.72
2022-07-27T12:30:31.881Z,100728.09
2022-07-27T12:33:00.975Z,100729.53
2022-07-27T12:35:36.509Z,100641.41
2022-07-27T12:38:10.715Z,100727.75
2022-07-27T12:40:45.420Z,100722.03
2022-07-27T12:43:17.387Z,100714.44
2022-07-27T12:45:45.461Z,100685.72
2022-07-27T12:48:15.628Z,100712.03
2022-07-27T12:50:44.583Z,100712.47
2022-07-27T12:53:17.607Z,100709.06
2022-07-27T12:55:45.781Z,100706.59
2022-07-27T12:58:14.974Z,100675.41
2022-07-27T13:00:43.227Z,100707.28
2022-07-27T13:03:11.564Z,100542.78
2022-07-27T13:05:39.629Z,100699.63
2022-07-27T13:08:08.182Z,100709.38
2022-07-27T13:10:38.492Z,100700.34
2022-07-27T13:13:08.248Z,100708.97
2022-07-27T13:15:36.614Z,100704.78
2022-07-27T13:18:05.407Z,100674.78
2022-07-27T13:20:34.069Z,100601.81
2022-07-27T13:23:02.114Z,100712.31
2022-07-27T13:25:30.565Z,100708.81
2022-07-27T13:28:00.163Z,100702.78
2022-07-27T13:30:28.379Z,100704.38
2022-07-27T13:32:57.502Z,100697.34
2022-07-27T13:35:25.516Z,100665.97
2022-07-27T13:37:53.953Z,100693.66
2022-07-27T13:40:22.212Z,100686.47
2022-07-27T13:42:50.223Z,100691.38
2022-07-27T13:45:20.086Z,100695.97
2022-07-27T13:47:48.360Z,100699.16
2022-07-27T13:50:19.710Z,100682.25
2022-07-27T13:52:49.581Z,100686.09
2022-07-27T13:55:18.758Z,100686.09
2022-07-27T13:57:48.003Z,100675.44
2022-07-27T14:00:17.616Z,100597.94
2022-07-27T14:02:47.362Z,100681.91
2022-07-27T14:05:16.183Z,100678.63
2022-07-27T14:07:49.541Z,100676.25
2022-07-27T14:10:32.769Z,100669.72
2022-07-27T14:13:08.402Z,100606.66
2022-07-27T14:15:52.856Z,100680.13
2022-07-27T14:18:24.210Z,100598.25
2022-07-27T14:20:52.311Z,100680.81
2022-07-27T14:23:20.406Z,100668.91
2022-07-27T14:25:48.415Z,100677.91
2022-07-27T14:28:17.092Z,100541.19
2022-07-27T14:30:45.378Z,100473.16
2022-07-27T14:33:13.449Z,100670.44
2022-07-27T14:35:43.512Z,100666.75
2022-07-27T14:38:12.219Z,100661.75
2022-07-27T14:40:41.993Z,100664.97
2022-07-27T14:43:10.828Z,100659.56
2022-07-27T14:45:45.083Z,100657.06
2022-07-27T14:48:21.499Z,100632.91
2022-07-27T14:50:58.027Z,100645.66
2022-07-27T14:53:26.556Z,100641.94
2022-07-27T14:55:54.884Z,100465.84
2022-07-27T14:58:23.104Z,100636.84
2022-07-27T15:00:52.951Z,100643.66
2022-07-27T15:03:21.634Z,100483.78
2022-07-27T15:05:51.053Z,100651.97
2022-07-27T15:08:21.720Z,100618.81
2022-07-27T15:10:50.147Z,100657.16
2022-07-27T15:13:19.208Z,100589.31
2022-07-27T15:15:49.065Z,100641.44
2022-07-27T15:18:19.530Z,100464.66
2022-07-27T15:20:48.237Z,100660.34
2022-07-27T15:23:16.419Z,100582.34
2022-07-27T15:25:45.998Z,100663.97
2022-07-27T15:28:15.899Z,100653.44
2022-07-27T15:30:43.918Z,100564.19
2022-07-27T15:33:12.066Z,100638.88
2022-07-27T15:35:40.229Z,100657.25
2022-07-27T15:38:08.496Z,100654.25
2022-07-27T15:40:41.401Z,100589.38
2022-07-27T15:43:13.724Z,100650.34
2022-07-27T15:45:43.484Z,100511.91
2022-07-27T15:48:13.699Z,100649.44
2022-07-27T15:50:44.764Z,100654.13
2022-07-27T15:53:14.919Z,100658.72
2022-07-27T15:55:44.278Z,100658.16
2022-07-27T15:58:18.099Z,100635.44
2022-07-27T16:00:47.648Z,100560.47
2022-07-27T16:03:16.063Z,100664.81
2022-07-27T16:05:47.518Z,100498.44
2022-07-27T16:08:16.173Z,100663.00
2022-07-27T16:10:46.238Z,100641.06
2022-07-27T16:13:16.394Z,100669.53
2022-07-27T16:16:02.122Z,100671.97
2022-07-27T16:18:35.293Z,100605.53
2022-07-27T16:21:06.851Z,100648.16
2022-07-27T16:23:35.128Z,100542.94
2022-07-27T16:26:05.502Z,100630.06
2022-07-27T16:28:38.953Z,100674.50
2022-07-27T16:31:08.278Z,100651.78
2022-07-27T16:33:36.842Z,100676.56
2022-07-27T16:36:05.526Z,100578.03
2022-07-27T16:38:33.701Z,100606.53
2022-07-27T16:41:03.205Z,100672.06
2022-07-27T16:43:38.364Z,100670.78
2022-07-27T16:46:10.114Z,100662.72
2022-07-27T16:48:41.753Z,100666.63
2022-07-27T16:51:13.556Z,100662.09
2022-07-27T16:53:43.579Z,100662.72
2022-07-27T16:56:12.718Z,100659.59
2022-07-27T16:58:41.695Z,100667.53
2022-07-27T17:01:21.969Z,100610.75
2022-07-27T17:03:54.870Z,100657.97
2022-07-27T17:06:23.893Z,100653.94
2022-07-27T17:08:51.920Z,100552.53
2022-07-27T17:11:21.505Z,100624.59
2022-07-27T17:13:50.520Z,100653.81
2022-07-27T17:16:20.362Z,100632.75
2022-07-27T17:18:48.710Z,100646.41
2022-07-27T17:21:16.942Z,100650.66
2022-07-27T17:23:45.212Z,100651.44
2022-07-27T17:26:14.278Z,100655.97
2022-07-27T17:28:43.345Z,100646.53
2022-07-27T17:31:13.399Z,100622.94
2022-07-27T17:33:43.335Z,100638.03
2022-07-27T17:36:15.434Z,100637.28
2022-07-27T17:38:44.773Z,100631.63
2022-07-27T17:41:13.534Z,100636.81
2022-07-27T17:43:41.804Z,100645.69
2022-07-27T17:46:11.373Z,100640.19
2022-07-27T17:48:40.821Z,100635.28
2022-07-27T17:51:11.745Z,100645.31
2022-07-27T17:53:40.391Z,100623.00
2022-07-27T17:56:09.139Z,100577.91
2022-07-27T17:58:37.584Z,100637.34
2022-07-27T18:01:06.474Z,100641.06
2022-07-27T18:03:34.893Z,100640.56
2022-07-27T18:06:03.209Z,100588.63
2022-07-27T18:08:32.779Z,100643.63
2022-07-27T18:11:00.918Z,100636.97
2022-07-27T18:13:37.855Z,100641.22
2022-07-27T18:16:11.778Z,100423.88
2022-07-27T18:18:41.882Z,100642.19
2022-07-27T18:21:13.993Z,100628.16
2022-07-27T18:23:43.791Z,100649.91
2022-07-27T18:26:12.428Z,100504.66
2022-07-27T18:28:40.827Z,100645.34
2022-07-27T18:31:09.863Z,100591.72
2022-07-27T18:33:40.452Z,100645.09
2022-07-27T18:36:08.803Z,100652.38
2022-07-27T18:38:38.094Z,100658.34
2022-07-27T18:41:08.326Z,100579.56
2022-07-27T18:43:36.426Z,100654.22
2022-07-27T18:46:04.707Z,100647.66
2022-07-27T18:48:33.136Z,100644.81
2022-07-27T18:51:01.432Z,100654.94
2022-07-27T18:53:29.842Z,100609.91
2022-07-27T18:55:58.374Z,100654.41
2022-07-27T18:58:28.780Z,100634.75
2022-07-27T19:00:58.564Z,100661.97
2022-07-27T19:03:28.021Z,100670.03
2022-07-27T19:05:57.387Z,100587.56
2022-07-27T19:08:25.759Z,100667.88
2022-07-27T19:10:54.146Z,100673.78
2022-07-27T19:13:22.422Z,100677.38
2022-07-27T19:15:51.890Z,100679.59
2022-07-27T19:18:20.027Z,100675.81
2022-07-27T19:20:48.075Z,100677.88
2022-07-27T19:23:16.317Z,100682.38
2022-07-27T19:25:45.287Z,100690.16
2022-07-27T19:28:16.584Z,100693.06
2022-07-27T19:30:44.657Z,100705.72
2022-07-27T19:33:14.145Z,100702.84
2022-07-27T19:35:42.362Z,100712.19
2022-07-27T19:38:10.599Z,100726.16
2022-07-27T19:40:46.704Z,100686.19
2022-07-27T19:43:15.502Z,100725.13
2022-07-27T19:45:44.424Z,100730.41
2022-07-27T19:48:14.134Z,100729.19
2022-07-27T19:50:43.421Z,100720.31
2022-07-27T19:53:11.733Z,100715.59
2022-07-27T19:55:39.886Z,100642.34
2022-07-27T19:58:08.062Z,100715.75
2022-07-27T20:00:36.270Z,100736.09
2022-07-27T20:03:04.792Z,100718.34
2022-07-27T20:05:34.831Z,100685.31
2022-07-27T20:08:03.214Z,100718.84
2022-07-27T20:10:31.413Z,100746.25
2022-07-27T20:12:59.718Z,100698.88
2022-07-27T20:15:27.816Z,100630.91
2022-07-27T20:17:56.533Z,100717.53
2022-07-27T20:20:25.002Z,100749.59
2022-07-27T20:22:55.261Z,100687.59
2022-07-27T20:25:23.639Z,100750.19
2022-07-27T20:27:52.623Z,100712.69
2022-07-27T20:30:21.310Z,100748.66
2022-07-27T20:32:50.718Z,100757.03
2022-07-27T20:35:19.403Z,100734.00
2022-07-27T20:37:48.604Z,100720.63
2022-07-27T20:40:19.433Z,100756.75
2022-07-27T20:42:48.512Z,100755.66
2022-07-27T20:45:16.551Z,100747.09
2022-07-27T20:47:44.792Z,100754.44
2022-07-27T20:50:14.736Z,100764.19
2022-07-27T20:52:44.078Z,100745.19
2022-07-27T20:55:12.902Z,100760.75
2022-07-27T20:57:42.371Z,100768.56
2022-07-27T21:00:12.108Z,100754.41
2022-07-27T21:02:40.863Z,100704.03
2022-07-27T21:05:10.501Z,100735.94
2022-07-27T21:07:38.893Z,100665.81
2022-07-27T21:10:09.105Z,100733.59
2022-07-27T21:12:37.118Z,100762.47
2022-07-27T21:15:13.108Z,100771.53
2022-07-27T21:17:41.994Z,100756.50
2022-07-27T21:20:11.729Z,100723.34
2022-07-27T21:22:39.632Z,100783.91
2022-07-27T21:25:08.754Z,100748.25
2022-07-27T21:27:36.960Z,100783.75
2022-07-27T21:30:09.579Z,100778.50
2022-07-27T21:32:37.704Z,100780.69
2022-07-27T21:35:07.262Z,100785.63
2022-07-27T21:37:35.486Z,100739.28
2022-07-27T21:40:03.630Z,100788.16
2022-07-27T21:42:33.113Z,100785.41
2022-07-27T21:45:01.587Z,100787.31
2022-07-27T21:47:32.765Z,100788.44
2022-07-27T21:50:00.986Z,100785.44
2022-07-27T21:52:29.340Z,100698.69
2022-07-27T21:54:57.386Z,100786.00
2022-07-27T21:57:25.668Z,100786.88
2022-07-27T21:59:53.686Z,100742.28
2022-07-27T22:02:21.660Z,100791.53
2022-07-27T22:04:51.072Z,100795.25
2022-07-27T22:07:19.687Z,100790.00
2022-07-27T22:09:47.776Z,100796.94
2022-07-27T22:12:15.934Z,100786.31
2022-07-27T22:14:44.140Z,100795.31
2022-07-27T22:17:12.418Z,100785.84
2022-07-27T22:19:40.497Z,100796.47
2022-07-27T22:22:10.056Z,100796.66
2022-07-27T22:24:38.327Z,100609.19
2022-07-27T22:27:07.480Z,100756.16
2022-07-27T22:29:35.585Z,100790.59
2022-07-27T22:32:03.839Z,100793.97
2022-07-27T22:34:32.255Z,100729.09
2022-07-27T22:37:01.198Z,100788.94
2022-07-27T22:39:31.079Z,100789.94
2022-07-27T22:41:59.232Z,100773.13
2022-07-27T22:44:27.467Z,100799.06
2022-07-27T22:46:55.555Z,100803.78
2022-07-27T22:49:23.964Z,100794.94
2022-07-27T22:51:52.887Z,100776.66
2022-07-27T22:54:22.592Z,100781.72
2022-07-27T22:56:52.002Z,100718.41
2022-07-27T22:59:20.003Z,100677.56
2022-07-27T23:01:48.634Z,100779.13
2022-07-27T23:04:18.173Z,100814.59
2022-07-27T23:06:46.659Z,100816.84
2022-07-27T23:09:15.053Z,100823.28
2022-07-27T23:11:43.974Z,100816.59
2022-07-27T23:14:14.292Z,100810.84
2022-07-27T23:16:42.715Z,100820.25
2022-07-27T23:19:11.640Z,100815.69
2022-07-27T23:21:42.070Z,100802.41
2022-07-27T23:24:11.059Z,100752.38
2022-07-27T23:26:39.586Z,100804.66
2022-07-27T23:29:08.019Z,100733.66
2022-07-27T23:31:37.587Z,100809.69
2022-07-27T23:34:05.619Z,100804.66
2022-07-27T23:36:33.593Z,100792.56
2022-07-27T23:39:01.652Z,100774.38
2022-07-27T23:41:29.859Z,100814.00
2022-07-27T23:43:57.880Z,100810.84
2022-07-27T23:46:26.040Z,100806.69
2022-07-27T23:48:55.595Z,100686.41
2022-07-27T23:51:23.828Z,100804.34
2022-07-27T23:53:51.849Z,100782.81
2022-07-27T23:56:19.900Z,100791.41
2022-07-27T23:58:48.225Z,100782.50
